createdAt,value
2018-01-25T00:02:00.948Z,48.20
2018-01-25T00:04:28.458Z,42.60
2018-01-25T00:06:55.928Z,45.90
2018-01-25T00:09:23.443Z,53.63
2018-01-25T00:11:50.942Z,50.73
2018-01-25T00:14:18.479Z,51.23
2018-01-25T00:16:45.943Z,53.40
2018-01-25T00:19:13.401Z,51.63
2018-01-25T00:21:40.862Z,53.13
2018-01-25T00:24:08.322Z,46.07
2018-01-25T00:26:35.807Z,48.90
2018-01-25T00:29:03.262Z,50.13
2018-01-25T00:31:30.756Z,53.57
2018-01-25T00:33:58.249Z,57.73
2018-01-25T00:36:26.346Z,51.33
2018-01-25T00:38:54.601Z,52.33
2018-01-25T00:41:22.060Z,47.77
2018-01-25T00:43:49.546Z,48.23
2018-01-25T00:46:17.061Z,46.27
2018-01-25T00:48:47.356Z,42.33
2018-01-25T00:51:15.013Z,49.80
2018-01-25T00:53:42.495Z,47.70
2018-01-25T00:56:09.979Z,45.10
2018-01-25T00:58:37.470Z,41.90
2018-01-25T01:01:04.974Z,44.47
2018-01-25T01:03:32.458Z,40.40
2018-01-25T01:05:59.920Z,43.00
2018-01-25T01:08:27.377Z,45.63
2018-01-25T01:10:54.894Z,40.70
2018-01-25T01:13:22.466Z,40.30
2018-01-25T01:15:49.913Z,44.90
2018-01-25T01:18:17.400Z,38.97
2018-01-25T01:20:44.866Z,43.27
2018-01-25T01:23:12.344Z,44.67
2018-01-25T01:25:39.855Z,42.13
2018-01-25T01:28:07.310Z,45.17
2018-01-25T01:30:34.914Z,43.33
2018-01-25T01:33:02.427Z,47.80
2018-01-25T01:35:29.894Z,47.80
2018-01-25T01:37:57.367Z,52.70
2018-01-25T01:40:24.873Z,49.37
2018-01-25T01:42:52.344Z,51.43
2018-01-25T01:45:19.832Z,47.70
2018-01-25T01:47:47.374Z,49.40
2018-01-25T01:50:15.040Z,46.63
2018-01-25T01:52:42.498Z,50.30
2018-01-25T01:55:10.122Z,47.27
2018-01-25T01:57:37.571Z,50.73
2018-01-25T02:00:05.058Z,45.80
2018-01-25T02:02:32.570Z,53.13
2018-01-25T02:05:00.025Z,51.90
2018-01-25T02:07:27.498Z,51.60
2018-01-25T02:09:54.981Z,49.57
2018-01-25T02:12:22.452Z,59.13
2018-01-25T02:14:49.930Z,55.55
2018-01-25T02:17:17.408Z,58.60
2018-01-25T02:19:44.867Z,53.13
2018-01-25T02:22:12.332Z,53.53
2018-01-25T02:24:40.111Z,61.30
2018-01-25T02:27:07.626Z,55.63
2018-01-25T02:29:35.146Z,53.53
2018-01-25T02:32:02.644Z,62.15
2018-01-25T02:34:30.523Z,74.47
2018-01-25T02:36:58.010Z,71.78
2018-01-25T02:39:25.476Z,78.10
2018-01-25T02:41:52.950Z,77.07
2018-01-25T02:44:20.422Z,83.83
2018-01-25T02:46:47.895Z,81.73
2018-01-25T02:49:15.393Z,79.73
2018-01-25T02:51:42.867Z,75.70
2018-01-25T02:54:10.409Z,68.18
2018-01-25T02:56:37.867Z,66.50
2018-01-25T02:59:05.322Z,64.43
2018-01-25T03:01:32.793Z,64.57
2018-01-25T03:04:00.297Z,67.62
2018-01-25T03:06:27.898Z,74.03
2018-01-25T03:08:55.438Z,67.85
2018-01-25T03:11:22.908Z,69.70
2018-01-25T03:13:50.373Z,68.60
2018-01-25T03:16:17.850Z,68.10
2018-01-25T03:18:45.347Z,68.67
2018-01-25T03:21:12.988Z,61.87
2018-01-25T03:23:40.449Z,68.82
2018-01-25T03:26:07.954Z,68.40
2018-01-25T03:28:35.549Z,61.97
2018-01-25T03:31:03.023Z,72.65
2018-01-25T03:33:30.520Z,63.47
2018-01-25T03:35:57.998Z,65.45
2018-01-25T03:38:25.482Z,65.93
2018-01-25T03:40:52.951Z,64.82
2018-01-25T03:43:20.414Z,68.17
2018-01-25T03:45:47.929Z,70.50
2018-01-25T03:48:15.444Z,64.40
2018-01-25T03:50:42.941Z,67.80
2018-01-25T03:53:10.418Z,65.53
2018-01-25T03:55:37.902Z,70.70
2018-01-25T03:58:05.402Z,73.60
2018-01-25T04:00:32.910Z,67.22
2018-01-25T04:03:00.372Z,71.72
2018-01-25T04:05:27.856Z,64.97
2018-01-25T04:07:55.336Z,64.60
2018-01-25T04:10:22.788Z,68.82
2018-01-25T04:12:50.302Z,67.55
2018-01-25T04:15:17.769Z,68.68
2018-01-25T04:17:45.243Z,70.07
2018-01-25T04:20:12.770Z,70.18
2018-01-25T04:22:40.229Z,68.50
2018-01-25T04:25:07.685Z,66.43
2018-01-25T04:27:35.175Z,67.50
2018-01-25T04:30:02.677Z,63.33
2018-01-25T04:32:30.364Z,67.95
2018-01-25T04:34:57.899Z,70.53
2018-01-25T04:37:25.357Z,70.78
2018-01-25T04:39:52.843Z,71.15
2018-01-25T04:42:20.310Z,76.72
2018-01-25T04:44:49.366Z,79.95
2018-01-25T04:47:16.854Z,70.43
2018-01-25T04:49:44.342Z,66.47
2018-01-25T04:52:11.814Z,64.07
2018-01-25T04:54:39.307Z,71.07
2018-01-25T04:57:06.787Z,72.12
2018-01-25T04:59:34.271Z,70.47
2018-01-25T05:02:01.738Z,71.85
2018-01-25T05:04:29.732Z,80.25
2018-01-25T05:06:57.215Z,78.20
2018-01-25T05:09:24.675Z,75.00
2018-01-25T05:11:52.167Z,74.15
2018-01-25T05:14:19.634Z,78.47
2018-01-25T05:19:48.214Z,80.10
2018-01-25T05:22:15.749Z,74.03
2018-01-25T05:24:43.347Z,74.28
2018-01-25T05:27:10.856Z,83.55
2018-01-25T05:29:38.427Z,85.68
2018-01-25T05:32:05.906Z,85.95
2018-01-25T05:34:33.361Z,81.32
2018-01-25T05:37:00.851Z,81.80
2018-01-25T05:39:28.327Z,76.35
2018-01-25T05:41:55.834Z,76.15
2018-01-25T05:44:23.329Z,77.37
2018-01-25T05:46:50.835Z,83.15
2018-01-25T05:49:18.327Z,77.30
2018-01-25T05:51:45.826Z,84.47
2018-01-25T05:54:13.326Z,78.30
2018-01-25T05:56:40.835Z,81.90
2018-01-25T05:59:08.324Z,77.62
2018-01-25T06:01:35.810Z,88.62
2018-01-25T06:04:03.296Z,85.25
2018-01-25T06:06:31.114Z,83.20
2018-01-25T06:08:58.721Z,77.30
2018-01-25T06:11:26.164Z,80.07
2018-01-25T06:13:53.661Z,83.62
2018-01-25T06:16:21.164Z,87.90
2018-01-25T06:18:48.679Z,78.10
2018-01-25T06:21:16.251Z,89.22
2018-01-25T06:23:43.722Z,85.95
2018-01-25T06:26:11.211Z,81.40
2018-01-25T06:28:38.729Z,79.62
2018-01-25T06:31:06.199Z,90.60
2018-01-25T06:33:33.686Z,116.75
2018-01-25T06:36:01.191Z,81.63
2018-01-25T06:38:30.309Z,86.32
2018-01-25T06:40:57.802Z,84.60
2018-01-25T06:43:25.279Z,76.57
2018-01-25T06:45:52.742Z,77.30
2018-01-25T06:48:21.289Z,74.85
2018-01-25T07:03:46.653Z,88.47
2018-01-25T07:06:34.136Z,76.20
2018-01-25T07:09:08.914Z,81.20
2018-01-25T07:11:36.801Z,86.40
2018-01-25T07:14:04.278Z,76.22
2018-01-25T07:16:33.696Z,86.75
2018-01-25T07:19:01.151Z,77.07
2018-01-25T07:24:02.966Z,77.90
2018-01-25T07:26:30.898Z,75.70
2018-01-25T07:28:58.362Z,78.20
2018-01-25T07:31:25.865Z,76.43
2018-01-25T07:33:53.337Z,70.33
2018-01-25T07:36:25.055Z,68.80
2018-01-25T07:38:54.647Z,67.20
2018-01-25T07:44:14.663Z,70.77
2018-01-25T07:46:42.278Z,68.53
2018-01-25T07:49:09.747Z,67.03
2018-01-25T07:51:37.212Z,76.93
2018-01-25T07:54:04.861Z,69.63
2018-01-25T07:56:32.610Z,67.40
2018-01-25T07:59:00.087Z,66.50
2018-01-25T08:01:27.550Z,66.10
2018-01-25T08:03:55.015Z,75.70
2018-01-25T08:06:22.627Z,71.10
2018-01-25T08:08:50.127Z,67.13
2018-01-25T08:11:17.575Z,65.70
2018-01-25T08:13:45.039Z,70.53
2018-01-25T08:19:15.687Z,72.77
2018-01-25T08:21:43.173Z,68.60
2018-01-25T08:24:10.642Z,67.47
2018-01-25T08:26:38.093Z,68.33
2018-01-25T08:29:08.412Z,70.87
2018-01-25T08:31:45.673Z,83.60
2018-01-25T08:34:15.163Z,68.87
2018-01-25T08:36:43.184Z,67.73
2018-01-25T08:39:10.636Z,72.63
2018-01-25T08:41:38.163Z,63.90
2018-01-25T08:44:08.147Z,65.20
2018-01-25T08:46:36.277Z,71.90
2018-01-25T08:49:06.090Z,66.57
2018-01-25T08:51:33.608Z,66.10
2018-01-25T08:54:01.105Z,62.27
2018-01-25T08:56:28.638Z,60.17
2018-01-25T08:59:00.099Z,68.67
2018-01-25T09:01:27.588Z,64.23
2018-01-25T09:03:55.061Z,65.20
2018-01-25T09:06:22.535Z,69.87
2018-01-25T09:08:50.020Z,59.20
2018-01-25T09:11:17.483Z,69.57
2018-01-25T09:13:44.957Z,65.67
2018-01-25T09:16:12.452Z,66.57
2018-01-25T09:18:40.000Z,63.67
2018-01-25T09:21:07.467Z,72.43
2018-01-25T09:23:34.951Z,64.47
2018-01-25T09:26:02.420Z,65.27
2018-01-25T09:28:31.533Z,62.40
2018-01-25T09:30:59.002Z,72.87
2018-01-25T09:33:26.470Z,60.77
2018-01-25T09:35:53.930Z,63.00
2018-01-25T09:38:21.383Z,61.17
2018-01-25T09:40:48.875Z,65.80
2018-01-25T09:43:16.523Z,64.57
2018-01-25T09:45:43.982Z,65.03
2018-01-25T09:48:11.461Z,58.10
2018-01-25T09:50:38.961Z,62.20
2018-01-25T09:53:06.465Z,57.67
2018-01-25T09:55:33.991Z,63.37
2018-01-25T09:58:01.474Z,63.87
2018-01-25T10:00:30.098Z,60.27
2018-01-25T10:02:57.592Z,65.53
2018-01-25T10:05:25.091Z,63.43
2018-01-25T10:07:52.628Z,67.30
2018-01-25T10:10:20.163Z,70.03
2018-01-25T10:12:47.626Z,66.80
2018-01-25T10:15:15.292Z,67.53
2018-01-25T10:17:42.766Z,65.80
2018-01-25T10:20:10.265Z,62.27
2018-01-25T10:22:38.127Z,73.97
2018-01-25T10:25:05.601Z,70.90
2018-01-25T10:27:33.111Z,65.23
2018-01-25T10:30:00.593Z,64.10
2018-01-25T10:32:28.110Z,63.43
2018-01-25T10:34:55.689Z,67.33
2018-01-25T10:37:23.186Z,60.93
2018-01-25T10:39:50.644Z,71.93
2018-01-25T10:42:18.129Z,66.97
2018-01-25T10:44:45.630Z,68.73
2018-01-25T10:47:13.115Z,74.40
2018-01-25T10:49:40.614Z,63.23
2018-01-25T10:52:08.102Z,68.80
2018-01-25T10:54:35.670Z,64.83
2018-01-25T10:57:03.195Z,63.90
2018-01-25T10:59:30.651Z,70.03
2018-01-25T11:02:03.766Z,60.87
2018-01-25T11:04:31.970Z,61.90
2018-01-25T11:07:00.366Z,63.97
2018-01-25T11:09:27.843Z,72.70
2018-01-25T11:11:55.313Z,72.03
2018-01-25T11:14:22.855Z,65.63
2018-01-25T11:16:50.331Z,78.40
2018-01-25T11:19:17.801Z,66.33
2018-01-25T11:21:45.267Z,69.77
2018-01-25T11:24:12.744Z,65.73
2018-01-25T11:26:40.269Z,63.97
2018-01-25T11:29:07.749Z,65.40
2018-01-25T11:31:35.268Z,65.10
2018-01-25T11:34:02.773Z,66.73
2018-01-25T11:36:30.351Z,63.37
2018-01-25T11:38:57.918Z,65.43
2018-01-25T11:41:25.436Z,68.40
2018-01-25T11:43:52.915Z,64.40
2018-01-25T11:46:20.415Z,64.47
2018-01-25T11:48:47.863Z,63.43
2018-01-25T11:51:15.453Z,66.70
2018-01-25T11:53:42.960Z,64.70
2018-01-25T11:56:10.451Z,65.53
2018-01-25T11:58:37.942Z,65.43
2018-01-25T12:01:05.426Z,60.40
2018-01-25T12:03:32.923Z,62.17
2018-01-25T12:06:00.403Z,66.87
2018-01-25T12:08:28.092Z,73.90
2018-01-25T12:10:55.558Z,63.23
2018-01-25T12:13:23.040Z,61.00
2018-01-25T12:15:50.669Z,61.33
2018-01-25T12:18:18.135Z,68.67
2018-01-25T12:20:45.595Z,68.40
2018-01-25T12:23:13.059Z,64.87
2018-01-25T12:25:40.516Z,64.53
2018-01-25T12:28:07.987Z,67.07
2018-01-25T12:30:35.446Z,63.27
2018-01-25T12:33:02.919Z,60.50
2018-01-25T12:35:30.838Z,61.70
2018-01-25T12:37:58.290Z,62.53
2018-01-25T12:40:25.783Z,61.23
2018-01-25T12:42:53.315Z,62.40
2018-01-25T12:45:20.777Z,69.43
2018-01-25T12:47:48.222Z,59.73
2018-01-25T12:50:15.830Z,58.57
2018-01-25T12:52:43.921Z,58.30
2018-01-25T12:55:11.476Z,61.40
2018-01-25T12:57:38.951Z,61.20
2018-01-25T13:00:06.438Z,67.03
2018-01-25T13:02:33.963Z,62.50
2018-01-25T13:05:01.441Z,58.83
2018-01-25T13:07:28.926Z,57.97
2018-01-25T13:09:56.451Z,60.37
2018-01-25T13:12:24.013Z,59.57
2018-01-25T13:14:51.480Z,63.70
2018-01-25T13:17:19.060Z,53.60
2018-01-25T13:19:46.526Z,59.53
2018-01-25T13:22:14.180Z,58.53
2018-01-25T13:24:41.661Z,67.73
2018-01-25T13:27:09.123Z,57.20
2018-01-25T13:29:36.614Z,55.40
2018-01-25T13:32:04.087Z,54.57
2018-01-25T13:34:33.034Z,57.63
2018-01-25T13:37:00.514Z,65.90
2018-01-25T13:39:27.988Z,65.23
2018-01-25T13:41:55.471Z,59.43
2018-01-25T13:44:22.935Z,62.13
2018-01-25T13:46:50.437Z,57.37
2018-01-25T13:49:17.891Z,58.63
2018-01-25T13:51:45.412Z,61.93
2018-01-25T13:54:12.893Z,62.43
2018-01-25T13:56:40.446Z,62.80
2018-01-25T13:59:07.920Z,56.80
2018-01-25T14:01:35.422Z,51.87
2018-01-25T14:04:02.898Z,59.63
2018-01-25T14:06:30.477Z,56.77
2018-01-25T14:08:57.960Z,62.77
2018-01-25T14:11:25.419Z,60.60
2018-01-25T14:13:52.936Z,56.60
2018-01-25T14:16:20.404Z,55.93
2018-01-25T14:18:47.926Z,55.50
2018-01-25T14:21:15.462Z,56.17
2018-01-25T14:23:42.957Z,65.63
2018-01-25T14:26:10.456Z,51.90
2018-01-25T14:28:39.051Z,62.60
2018-01-25T14:31:06.519Z,55.50
2018-01-25T14:33:34.003Z,54.80
2018-01-25T14:36:01.463Z,70.13
2018-01-25T14:38:29.282Z,56.23
2018-01-25T14:40:56.775Z,58.50
2018-01-25T14:43:24.235Z,53.90
2018-01-25T14:45:52.851Z,62.67
2018-01-25T14:48:20.355Z,57.03
2018-01-25T14:50:47.851Z,59.30
2018-01-25T14:53:15.303Z,62.47
2018-01-25T14:55:42.823Z,62.70
2018-01-25T14:58:10.284Z,65.53
2018-01-25T15:00:37.768Z,59.90
2018-01-25T15:03:05.230Z,59.20
2018-01-25T15:05:32.696Z,63.80
2018-01-25T15:08:00.245Z,57.97
2018-01-25T15:10:27.689Z,62.33
2018-01-25T15:12:55.164Z,60.70
2018-01-25T15:15:22.653Z,57.57
2018-01-25T15:17:50.122Z,64.53
2018-01-25T15:20:17.616Z,66.70
2018-01-25T15:22:45.088Z,73.33
2018-01-25T15:25:18.943Z,63.33
2018-01-25T15:27:46.427Z,62.00
2018-01-25T15:30:13.991Z,71.73
2018-01-25T15:32:41.426Z,66.30
2018-01-25T15:35:08.903Z,66.93
2018-01-25T15:37:36.358Z,67.97
2018-01-25T15:40:03.928Z,63.90
2018-01-25T15:42:31.409Z,70.13
2018-01-25T15:44:58.943Z,64.03
2018-01-25T15:47:26.544Z,69.10
2018-01-25T15:49:54.023Z,63.90
2018-01-25T15:52:21.508Z,61.87
2018-01-25T15:54:48.995Z,57.97
2018-01-25T15:57:16.599Z,60.30
2018-01-25T15:59:44.090Z,58.90
2018-01-25T16:02:11.543Z,65.73
2018-01-25T16:04:39.086Z,63.60
2018-01-25T16:07:06.587Z,55.63
2018-01-25T16:09:34.058Z,58.40
2018-01-25T16:12:01.580Z,52.57
2018-01-25T16:14:29.888Z,57.80
2018-01-25T16:33:07.519Z,55.38
2018-01-25T16:35:35.067Z,52.50
2018-01-25T16:38:02.534Z,72.23
2018-01-25T16:40:29.991Z,50.57
2018-01-25T16:42:57.542Z,50.93
2018-01-25T16:45:25.014Z,64.33
2018-01-25T16:47:52.538Z,53.07
2018-01-25T16:50:20.024Z,53.30
2018-01-25T16:52:47.490Z,56.83
2018-01-25T16:55:14.962Z,64.00
2018-01-25T16:57:42.490Z,51.77
2018-01-25T17:00:09.989Z,54.37
2018-01-25T17:02:37.455Z,55.80
2018-01-25T17:05:05.436Z,55.93
2018-01-25T17:07:32.919Z,60.67
2018-01-25T17:10:00.423Z,56.83
2018-01-25T17:12:29.013Z,58.50
2018-01-25T17:14:56.521Z,55.13
2018-01-25T17:17:23.994Z,57.13
2018-01-25T17:19:51.503Z,59.17
2018-01-25T17:22:19.023Z,57.07
2018-01-25T17:24:46.538Z,54.97
2018-01-25T17:27:15.163Z,59.90
2018-01-25T17:29:42.688Z,65.63
2018-01-25T17:32:10.164Z,59.13
2018-01-25T17:34:38.029Z,64.37
2018-01-25T17:37:05.529Z,58.43
2018-01-25T17:39:33.106Z,64.20
2018-01-25T17:42:00.575Z,59.97
2018-01-25T17:44:28.521Z,60.90
2018-01-25T17:46:55.996Z,60.93
2018-01-25T17:49:23.476Z,56.80
2018-01-25T17:51:51.136Z,56.77
2018-01-25T17:54:18.668Z,56.07
2018-01-25T17:56:46.162Z,59.80
2018-01-25T17:59:13.638Z,56.57
2018-01-25T18:01:41.114Z,54.33
2018-01-25T18:04:08.649Z,53.40
2018-01-25T18:06:36.131Z,59.33
2018-01-25T18:09:03.714Z,59.37
2018-01-25T18:11:31.213Z,60.30
2018-01-25T18:13:58.692Z,58.00
2018-01-25T18:16:26.172Z,61.10
2018-01-25T18:18:53.644Z,59.23
2018-01-25T18:21:21.169Z,50.50
2018-01-25T18:23:48.744Z,59.50
2018-01-25T18:26:16.211Z,58.00
2018-01-25T18:28:43.662Z,53.53
2018-01-25T18:31:11.207Z,59.57
2018-01-25T18:33:38.750Z,56.13
2018-01-25T18:36:06.312Z,54.83
2018-01-25T18:38:33.845Z,59.00
2018-01-25T18:41:01.449Z,55.67
2018-01-25T18:43:28.913Z,57.10
2018-01-25T18:45:56.411Z,51.37
2018-01-25T18:48:26.095Z,73.53
2018-01-25T18:50:54.784Z,86.23
2018-01-25T18:53:22.335Z,62.20
2018-01-25T18:55:51.839Z,59.40
2018-01-25T18:58:19.634Z,63.60
2018-01-25T19:00:47.359Z,54.60
2018-01-25T19:03:16.207Z,50.53
2018-01-25T19:05:44.485Z,48.77
2018-01-25T19:08:12.048Z,49.50
2018-01-25T19:10:39.706Z,56.63
2018-01-25T19:13:08.322Z,49.33
2018-01-25T19:15:35.923Z,50.43
2018-01-25T19:18:03.898Z,53.63
2018-01-25T19:20:32.487Z,54.40
2018-01-25T19:23:00.407Z,47.87
2018-01-25T19:25:28.760Z,50.33
2018-01-25T19:27:56.471Z,47.70
2018-01-25T19:30:24.204Z,47.97
2018-01-25T19:32:51.869Z,48.93
2018-01-25T19:35:19.528Z,49.67
2018-01-25T19:37:47.245Z,54.47
2018-01-25T19:40:16.067Z,47.50
2018-01-25T19:42:45.387Z,47.60
2018-01-25T19:45:13.318Z,48.53
2018-01-25T19:47:41.010Z,45.80
2018-01-25T19:50:08.653Z,50.90
2018-01-25T19:52:36.209Z,47.87
2018-01-25T19:55:03.719Z,46.17
2018-01-25T19:57:31.448Z,48.30
2018-01-25T19:59:59.189Z,46.78
2018-01-25T20:02:26.818Z,49.38
2018-01-25T20:04:54.658Z,47.63
2018-01-25T20:07:22.650Z,49.00
2018-01-25T20:09:50.232Z,49.57
2018-01-25T20:12:17.716Z,51.47
2018-01-25T20:14:45.476Z,52.37
2018-01-25T20:17:13.055Z,53.77
2018-01-25T20:19:42.448Z,55.83
2018-01-25T20:22:10.953Z,54.50
2018-01-25T20:24:38.798Z,53.55
2018-01-25T20:27:06.733Z,54.40
2018-01-25T20:29:34.293Z,50.45
2018-01-25T20:32:02.143Z,59.80
2018-01-25T20:34:30.214Z,59.43
2018-01-25T20:36:57.907Z,60.60
2018-01-25T20:39:25.495Z,58.67
2018-01-25T20:41:53.389Z,54.28
2018-01-25T20:44:21.298Z,60.00
2018-01-25T20:46:48.992Z,62.23
2018-01-25T20:49:17.105Z,60.22
2018-01-25T20:51:45.095Z,57.92
2018-01-25T21:10:12.997Z,61.20
2018-01-25T21:12:41.146Z,60.92
2018-01-25T21:15:09.538Z,61.10
2018-01-25T21:17:37.236Z,53.10
2018-01-25T21:20:04.746Z,58.00
2018-01-25T21:22:32.752Z,61.17
2018-01-25T21:25:00.267Z,57.20
2018-01-25T21:27:27.752Z,58.20
2018-01-25T21:29:55.288Z,61.80
2018-01-25T21:32:22.815Z,58.83
2018-01-25T21:34:52.423Z,63.30
2018-01-25T21:37:22.215Z,59.03
2018-01-25T21:39:49.792Z,55.28
2018-01-25T21:42:17.286Z,58.97
2018-01-25T21:44:44.807Z,58.00
2018-01-25T21:47:12.316Z,62.90
2018-01-25T21:49:40.047Z,61.57
2018-01-25T21:52:07.533Z,62.90
2018-01-25T21:54:35.348Z,58.75
2018-01-25T21:57:02.956Z,63.00
2018-01-25T21:59:30.459Z,59.00
2018-01-25T22:01:57.948Z,70.63
2018-01-25T22:04:25.416Z,58.78
2018-01-25T22:06:54.620Z,63.50
2018-01-25T22:09:29.106Z,71.22
2018-01-25T22:11:56.635Z,70.35
2018-01-25T22:14:24.147Z,62.45
2018-01-25T22:16:51.662Z,64.47
2018-01-25T22:19:19.162Z,69.03
2018-01-25T22:21:46.667Z,57.15
2018-01-25T22:24:14.166Z,61.25
2018-01-25T22:26:41.654Z,65.25
2018-01-25T22:29:09.215Z,61.58
2018-01-25T22:31:36.704Z,58.58
2018-01-25T22:34:04.247Z,70.15
2018-01-25T22:36:31.732Z,64.97
2018-01-25T22:38:59.282Z,65.40
2018-01-25T22:41:26.778Z,60.20
2018-01-25T22:43:54.264Z,66.37
2018-01-25T22:46:21.754Z,62.15
2018-01-25T22:48:49.283Z,60.70
2018-01-25T22:51:16.774Z,58.60
2018-01-25T22:53:44.238Z,66.73
2018-01-25T22:56:11.721Z,62.28
2018-01-25T22:58:39.206Z,64.20
2018-01-25T23:01:06.668Z,60.30
2018-01-25T23:03:34.159Z,61.70
2018-01-25T23:06:01.613Z,62.23
2018-01-25T23:08:29.784Z,64.60
2018-01-25T23:10:57.367Z,67.83
2018-01-25T23:13:24.829Z,58.33
2018-01-25T23:15:52.306Z,59.60
2018-01-25T23:18:19.778Z,65.30
2018-01-25T23:20:47.221Z,64.33
2018-01-25T23:23:14.727Z,61.80
2018-01-25T23:25:42.207Z,59.00
2018-01-25T23:28:09.685Z,62.07
2018-01-25T23:30:37.160Z,59.27
2018-01-25T23:33:04.635Z,59.83
2018-01-25T23:35:32.098Z,70.37
2018-01-25T23:37:59.615Z,53.23
2018-01-25T23:40:27.112Z,59.00
2018-01-25T23:42:54.605Z,56.83
2018-01-25T23:45:22.215Z,61.77
2018-01-25T23:47:49.695Z,65.40
2018-01-25T23:50:17.194Z,63.90
2018-01-25T23:52:44.667Z,55.23
2018-01-25T23:55:12.143Z,59.23
2018-01-25T23:57:39.632Z,56.27
